sensor_id;sensor_type;location;lat;lon;timestamp;temperature;humidity
26907;DHT22;14472;56.880;16.658;2022-09-06T00:00:38;13.60;1.00
26907;DHT22;14472;56.880;16.658;2022-09-06T00:03:04;13.50;1.00
26907;DHT22;14472;56.880;16.658;2022-09-06T00:05:31;13.50;1.00
26907;DHT22;14472;56.880;16.658;2022-09-06T00:07:58;13.50;1.00
26907;DHT22;14472;56.880;16.658;2022-09-06T00:10:25;13.50;1.00
26907;DHT22;14472;56.880;16.658;2022-09-06T00:12:51;13.40;1.00
26907;DHT22;14472;56.880;16.658;2022-09-06T00:15:17;13.40;1.00
26907;DHT22;14472;56.880;16.658;2022-09-06T00:17:42;13.40;1.00
26907;DHT22;14472;56.880;16.658;2022-09-06T00:20:11;13.40;1.00
26907;DHT22;14472;56.880;16.658;2022-09-06T00:22:37;13.40;1.00
26907;DHT22;14472;56.880;16.658;2022-09-06T00:25:04;13.40;1.00
26907;DHT22;14472;56.880;16.658;2022-09-06T00:27:30;13.40;1.00
26907;DHT22;14472;56.880;16.658;2022-09-06T00:29:56;13.40;1.00
26907;DHT22;14472;56.880;16.658;2022-09-06T00:32:22;13.40;1.00
26907;DHT22;14472;56.880;16.658;2022-09-06T00:34:48;13.40;1.00
26907;DHT22;14472;56.880;16.658;2022-09-06T00:37:13;13.40;1.00
26907;DHT22;14472;56.880;16.658;2022-09-06T00:39:39;13.40;1.00
26907;DHT22;14472;56.880;16.658;2022-09-06T00:42:10;13.40;1.00
26907;DHT22;14472;56.880;16.658;2022-09-06T00:44:36;13.40;1.00
26907;DHT22;14472;56.880;16.658;2022-09-06T00:47:02;13.40;1.00
26907;DHT22;14472;56.880;16.658;2022-09-06T00:49:31;13.30;1.00
26907;DHT22;14472;56.880;16.658;2022-09-06T00:52:07;13.40;1.00
26907;DHT22;14472;56.880;16.658;2022-09-06T00:54:34;13.40;1.00
26907;DHT22;14472;56.880;16.658;2022-09-06T00:57:00;13.40;1.00
26907;DHT22;14472;56.880;16.658;2022-09-06T00:59:29;13.40;1.00
26907;DHT22;14472;56.880;16.658;2022-09-06T01:01:55;13.50;1.00
26907;DHT22;14472;56.880;16.658;2022-09-06T01:04:22;13.40;1.00
26907;DHT22;14472;56.880;16.658;2022-09-06T01:07:06;13.50;1.00
26907;DHT22;14472;56.880;16.658;2022-09-06T01:09:51;13.50;1.00
26907;DHT22;14472;56.880;16.658;2022-09-06T01:29:04;13.30;1.00
26907;DHT22;14472;56.880;16.658;2022-09-06T01:31:47;13.30;1.00
26907;DHT22;14472;56.880;16.658;2022-09-06T01:34:26;13.20;1.00
26907;DHT22;14472;56.880;16.658;2022-09-06T01:37:00;13.20;1.00
26907;DHT22;14472;56.880;16.658;2022-09-06T01:39:32;13.20;1.00
26907;DHT22;14472;56.880;16.658;2022-09-06T01:42:19;13.20;1.00
26907;DHT22;14472;56.880;16.658;2022-09-06T02:03:58;12.90;1.00
26907;DHT22;14472;56.880;16.658;2022-09-06T02:06:31;12.90;1.00
26907;DHT22;14472;56.880;16.658;2022-09-06T02:09:05;12.80;1.00
26907;DHT22;14472;56.880;16.658;2022-09-06T02:11:40;12.80;1.00
26907;DHT22;14472;56.880;16.658;2022-09-06T02:14:19;12.70;1.00
26907;DHT22;14472;56.880;16.658;2022-09-06T02:16:48;12.70;1.00
26907;DHT22;14472;56.880;16.658;2022-09-06T02:20:01;12.70;1.00
26907;DHT22;14472;56.880;16.658;2022-09-06T02:22:11;12.70;1.00
26907;DHT22;14472;56.880;16.658;2022-09-06T02:24:41;12.70;1.00
26907;DHT22;14472;56.880;16.658;2022-09-06T02:27:08;12.70;1.00
26907;DHT22;14472;56.880;16.658;2022-09-06T02:29:34;12.70;1.00
26907;DHT22;14472;56.880;16.658;2022-09-06T02:32:20;12.60;1.00
26907;DHT22;14472;56.880;16.658;2022-09-06T02:34:51;12.60;1.00
26907;DHT22;14472;56.880;16.658;2022-09-06T02:37:18;12.50;1.00
26907;DHT22;14472;56.880;16.658;2022-09-06T02:39:44;12.50;1.00
26907;DHT22;14472;56.880;16.658;2022-09-06T02:42:12;12.40;1.00
26907;DHT22;14472;56.880;16.658;2022-09-06T02:44:38;12.50;1.00
26907;DHT22;14472;56.880;16.658;2022-09-06T02:47:04;12.40;1.00
26907;DHT22;14472;56.880;16.658;2022-09-06T02:49:30;12.40;1.00
26907;DHT22;14472;56.880;16.658;2022-09-06T02:51:56;12.40;1.00
26907;DHT22;14472;56.880;16.658;2022-09-06T02:54:22;12.40;1.00
26907;DHT22;14472;56.880;16.658;2022-09-06T02:56:48;12.30;1.00
26907;DHT22;14472;56.880;16.658;2022-09-06T02:59:14;12.20;1.00
26907;DHT22;14472;56.880;16.658;2022-09-06T03:01:40;12.20;1.00
26907;DHT22;14472;56.880;16.658;2022-09-06T03:04:05;12.20;1.00
26907;DHT22;14472;56.880;16.658;2022-09-06T03:06:31;12.20;1.00
26907;DHT22;14472;56.880;16.658;2022-09-06T03:08:57;12.20;1.00
26907;DHT22;14472;56.880;16.658;2022-09-06T03:11:25;12.20;1.00
26907;DHT22;14472;56.880;16.658;2022-09-06T03:13:50;12.20;1.00
26907;DHT22;14472;56.880;16.658;2022-09-06T03:16:18;12.10;1.00
26907;DHT22;14472;56.880;16.658;2022-09-06T03:18:44;12.10;1.00
26907;DHT22;14472;56.880;16.658;2022-09-06T03:21:10;12.10;1.00
26907;DHT22;14472;56.880;16.658;2022-09-06T03:23:36;12.00;1.00
26907;DHT22;14472;56.880;16.658;2022-09-06T03:26:04;12.00;1.00
26907;DHT22;14472;56.880;16.658;2022-09-06T03:28:30;12.00;1.00
26907;DHT22;14472;56.880;16.658;2022-09-06T03:30:56;11.90;1.00
26907;DHT22;14472;56.880;16.658;2022-09-06T03:33:22;11.90;1.00
26907;DHT22;14472;56.880;16.658;2022-09-06T03:35:53;11.90;1.00
26907;DHT22;14472;56.880;16.658;2022-09-06T03:38:20;11.80;1.00
26907;DHT22;14472;56.880;16.658;2022-09-06T03:40:47;11.80;1.00
26907;DHT22;14472;56.880;16.658;2022-09-06T03:43:14;11.80;1.00
26907;DHT22;14472;56.880;16.658;2022-09-06T03:45:44;11.80;1.00
26907;DHT22;14472;56.880;16.658;2022-09-06T03:48:10;11.70;1.00
26907;DHT22;14472;56.880;16.658;2022-09-06T03:50:36;11.70;1.00
26907;DHT22;14472;56.880;16.658;2022-09-06T03:53:02;11.70;1.00
26907;DHT22;14472;56.880;16.658;2022-09-06T03:55:27;11.70;1.00
26907;DHT22;14472;56.880;16.658;2022-09-06T03:57:53;11.70;1.00
26907;DHT22;14472;56.880;16.658;2022-09-06T04:00:19;11.70;1.00
26907;DHT22;14472;56.880;16.658;2022-09-06T04:02:44;11.70;1.00
26907;DHT22;14472;56.880;16.658;2022-09-06T04:05:10;11.70;1.00
26907;DHT22;14472;56.880;16.658;2022-09-06T04:07:37;11.70;1.00
26907;DHT22;14472;56.880;16.658;2022-09-06T04:10:04;11.50;1.00
26907;DHT22;14472;56.880;16.658;2022-09-06T04:12:30;11.60;1.00
26907;DHT22;14472;56.880;16.658;2022-09-06T04:14:55;11.60;1.00
26907;DHT22;14472;56.880;16.658;2022-09-06T04:17:21;11.60;1.00
26907;DHT22;14472;56.880;16.658;2022-09-06T04:19:47;11.60;1.00
26907;DHT22;14472;56.880;16.658;2022-09-06T04:22:12;11.60;1.00
26907;DHT22;14472;56.880;16.658;2022-09-06T04:24:38;11.60;1.00
26907;DHT22;14472;56.880;16.658;2022-09-06T04:27:04;11.60;1.00
26907;DHT22;14472;56.880;16.658;2022-09-06T04:29:29;11.50;1.00
26907;DHT22;14472;56.880;16.658;2022-09-06T04:31:55;11.60;1.00
26907;DHT22;14472;56.880;16.658;2022-09-06T04:34:21;11.60;1.00
26907;DHT22;14472;56.880;16.658;2022-09-06T04:36:47;11.60;1.00
26907;DHT22;14472;56.880;16.658;2022-09-06T04:39:12;11.60;1.00
26907;DHT22;14472;56.880;16.658;2022-09-06T04:41:38;11.50;1.00
26907;DHT22;14472;56.880;16.658;2022-09-06T04:44:04;11.50;1.00
26907;DHT22;14472;56.880;16.658;2022-09-06T04:46:30;11.50;1.00
26907;DHT22;14472;56.880;16.658;2022-09-06T04:48:56;11.50;1.00
26907;DHT22;14472;56.880;16.658;2022-09-06T04:51:23;11.50;1.00
26907;DHT22;14472;56.880;16.658;2022-09-06T04:53:50;11.50;1.00
26907;DHT22;14472;56.880;16.658;2022-09-06T04:56:23;11.50;1.00
26907;DHT22;14472;56.880;16.658;2022-09-06T04:58:49;11.50;1.00
26907;DHT22;14472;56.880;16.658;2022-09-06T05:01:15;11.60;1.00
26907;DHT22;14472;56.880;16.658;2022-09-06T05:03:41;11.60;1.00
26907;DHT22;14472;56.880;16.658;2022-09-06T05:06:16;11.60;1.00
26907;DHT22;14472;56.880;16.658;2022-09-06T05:08:43;11.60;1.00
26907;DHT22;14472;56.880;16.658;2022-09-06T05:11:08;11.60;1.00
26907;DHT22;14472;56.880;16.658;2022-09-06T05:13:35;11.60;1.00
26907;DHT22;14472;56.880;16.658;2022-09-06T05:16:02;11.60;1.00
26907;DHT22;14472;56.880;16.658;2022-09-06T05:18:28;11.60;1.00
26907;DHT22;14472;56.880;16.658;2022-09-06T05:20:55;11.60;1.00
26907;DHT22;14472;56.880;16.658;2022-09-06T05:23:21;11.60;1.00
26907;DHT22;14472;56.880;16.658;2022-09-06T05:25:48;11.70;1.00
26907;DHT22;14472;56.880;16.658;2022-09-06T05:28:14;11.70;1.00
26907;DHT22;14472;56.880;16.658;2022-09-06T05:30:41;11.70;1.00
26907;DHT22;14472;56.880;16.658;2022-09-06T05:33:10;11.80;1.00
26907;DHT22;14472;56.880;16.658;2022-09-06T05:35:36;11.80;1.00
26907;DHT22;14472;56.880;16.658;2022-09-06T05:38:02;11.80;1.00
26907;DHT22;14472;56.880;16.658;2022-09-06T05:40:28;11.80;1.00
26907;DHT22;14472;56.880;16.658;2022-09-06T05:42:53;11.90;1.00
26907;DHT22;14472;56.880;16.658;2022-09-06T05:45:19;11.90;1.00
26907;DHT22;14472;56.880;16.658;2022-09-06T05:47:45;11.90;1.00
26907;DHT22;14472;56.880;16.658;2022-09-06T05:50:11;11.90;1.00
26907;DHT22;14472;56.880;16.658;2022-09-06T05:52:37;12.00;1.00
26907;DHT22;14472;56.880;16.658;2022-09-06T05:55:05;12.00;1.00
26907;DHT22;14472;56.880;16.658;2022-09-06T05:57:31;12.00;1.00
26907;DHT22;14472;56.880;16.658;2022-09-06T05:59:56;12.10;1.00
26907;DHT22;14472;56.880;16.658;2022-09-06T06:02:23;12.20;1.00
26907;DHT22;14472;56.880;16.658;2022-09-06T06:04:49;12.30;1.00
26907;DHT22;14472;56.880;16.658;2022-09-06T06:07:16;12.30;1.00
26907;DHT22;14472;56.880;16.658;2022-09-06T06:09:42;12.50;1.00
26907;DHT22;14472;56.880;16.658;2022-09-06T06:12:08;12.60;1.00
26907;DHT22;14472;56.880;16.658;2022-09-06T06:14:34;12.70;1.00
26907;DHT22;14472;56.880;16.658;2022-09-06T06:17:00;12.70;1.00
26907;DHT22;14472;56.880;16.658;2022-09-06T06:19:27;12.80;1.00
26907;DHT22;14472;56.880;16.658;2022-09-06T06:21:53;12.90;1.00
26907;DHT22;14472;56.880;16.658;2022-09-06T06:24:20;13.00;1.00
26907;DHT22;14472;56.880;16.658;2022-09-06T06:26:46;13.10;1.00
26907;DHT22;14472;56.880;16.658;2022-09-06T06:29:12;13.30;1.00
26907;DHT22;14472;56.880;16.658;2022-09-06T06:31:39;13.40;1.00
26907;DHT22;14472;56.880;16.658;2022-09-06T06:34:05;13.50;1.00
26907;DHT22;14472;56.880;16.658;2022-09-06T06:36:32;13.60;1.00
26907;DHT22;14472;56.880;16.658;2022-09-06T06:38:59;13.70;1.00
26907;DHT22;14472;56.880;16.658;2022-09-06T06:41:27;13.80;1.00
26907;DHT22;14472;56.880;16.658;2022-09-06T06:43:57;13.90;1.00
26907;DHT22;14472;56.880;16.658;2022-09-06T06:46:28;14.00;1.00
26907;DHT22;14472;56.880;16.658;2022-09-06T06:48:55;14.00;1.00
26907;DHT22;14472;56.880;16.658;2022-09-06T06:51:24;14.10;1.00
26907;DHT22;14472;56.880;16.658;2022-09-06T06:53:50;14.20;1.00
26907;DHT22;14472;56.880;16.658;2022-09-06T06:56:21;14.30;1.00
26907;DHT22;14472;56.880;16.658;2022-09-06T06:58:49;14.40;1.00
26907;DHT22;14472;56.880;16.658;2022-09-06T07:01:16;14.50;1.00
26907;DHT22;14472;56.880;16.658;2022-09-06T07:03:43;14.60;1.00
26907;DHT22;14472;56.880;16.658;2022-09-06T07:06:09;14.70;1.00
26907;DHT22;14472;56.880;16.658;2022-09-06T07:08:35;14.80;1.00
26907;DHT22;14472;56.880;16.658;2022-09-06T07:11:09;14.90;1.00
26907;DHT22;14472;56.880;16.658;2022-09-06T07:13:36;15.00;1.00
26907;DHT22;14472;56.880;16.658;2022-09-06T07:16:10;15.10;1.00
26907;DHT22;14472;56.880;16.658;2022-09-06T07:18:36;15.10;1.00
26907;DHT22;14472;56.880;16.658;2022-09-06T07:21:10;15.20;1.00
26907;DHT22;14472;56.880;16.658;2022-09-06T07:23:36;15.30;1.00
26907;DHT22;14472;56.880;16.658;2022-09-06T07:26:02;15.40;1.00
26907;DHT22;14472;56.880;16.658;2022-09-06T07:28:29;15.40;1.00
26907;DHT22;14472;56.880;16.658;2022-09-06T07:30:56;15.50;1.00
26907;DHT22;14472;56.880;16.658;2022-09-06T07:33:23;15.60;1.00
26907;DHT22;14472;56.880;16.658;2022-09-06T07:36:00;15.70;1.00
26907;DHT22;14472;56.880;16.658;2022-09-06T07:38:27;15.80;1.00
26907;DHT22;14472;56.880;16.658;2022-09-06T07:40:55;15.90;1.00
26907;DHT22;14472;56.880;16.658;2022-09-06T07:43:21;15.90;1.00
26907;DHT22;14472;56.880;16.658;2022-09-06T07:45:47;16.00;1.00
26907;DHT22;14472;56.880;16.658;2022-09-06T07:48:13;16.10;1.00
26907;DHT22;14472;56.880;16.658;2022-09-06T07:50:39;16.10;1.00
26907;DHT22;14472;56.880;16.658;2022-09-06T07:53:05;16.20;1.00
26907;DHT22;14472;56.880;16.658;2022-09-06T07:55:31;16.40;1.00
26907;DHT22;14472;56.880;16.658;2022-09-06T07:57:57;16.50;1.00
26907;DHT22;14472;56.880;16.658;2022-09-06T08:00:22;16.60;1.00
26907;DHT22;14472;56.880;16.658;2022-09-06T08:02:48;16.70;1.00
26907;DHT22;14472;56.880;16.658;2022-09-06T08:05:14;16.80;1.00
26907;DHT22;14472;56.880;16.658;2022-09-06T08:07:39;17.00;1.00
26907;DHT22;14472;56.880;16.658;2022-09-06T08:10:05;17.10;1.00
26907;DHT22;14472;56.880;16.658;2022-09-06T08:12:31;17.20;1.00
26907;DHT22;14472;56.880;16.658;2022-09-06T08:14:57;17.30;1.00
26907;DHT22;14472;56.880;16.658;2022-09-06T08:17:23;17.50;1.00
26907;DHT22;14472;56.880;16.658;2022-09-06T08:19:48;17.70;1.00
26907;DHT22;14472;56.880;16.658;2022-09-06T08:22:14;17.80;1.00
26907;DHT22;14472;56.880;16.658;2022-09-06T08:24:40;18.00;1.00
26907;DHT22;14472;56.880;16.658;2022-09-06T08:27:05;18.20;1.00
26907;DHT22;14472;56.880;16.658;2022-09-06T08:29:35;18.40;1.00
26907;DHT22;14472;56.880;16.658;2022-09-06T08:32:01;18.50;1.00
26907;DHT22;14472;56.880;16.658;2022-09-06T08:34:27;18.60;1.00
26907;DHT22;14472;56.880;16.658;2022-09-06T08:36:52;18.70;1.00
26907;DHT22;14472;56.880;16.658;2022-09-06T08:39:18;18.80;1.00
26907;DHT22;14472;56.880;16.658;2022-09-06T08:41:59;19.00;1.00
26907;DHT22;14472;56.880;16.658;2022-09-06T08:47:05;19.40;1.00
26907;DHT22;14472;56.880;16.658;2022-09-06T08:49:35;19.50;1.00
26907;DHT22;14472;56.880;16.658;2022-09-06T08:57:42;19.70;1.00
26907;DHT22;14472;56.880;16.658;2022-09-06T09:00:11;19.90;1.00
26907;DHT22;14472;56.880;16.658;2022-09-06T09:02:51;20.00;1.00
26907;DHT22;14472;56.880;16.658;2022-09-06T09:05:27;20.10;1.00
26907;DHT22;14472;56.880;16.658;2022-09-06T09:08:14;20.20;1.00
26907;DHT22;14472;56.880;16.658;2022-09-06T09:11:25;20.30;1.00
26907;DHT22;14472;56.880;16.658;2022-09-06T09:13:54;20.40;1.00
26907;DHT22;14472;56.880;16.658;2022-09-06T09:16:21;20.60;1.00
26907;DHT22;14472;56.880;16.658;2022-09-06T09:18:50;20.70;1.00
26907;DHT22;14472;56.880;16.658;2022-09-06T09:21:20;20.70;1.00
26907;DHT22;14472;56.880;16.658;2022-09-06T09:23:54;20.60;1.00
26907;DHT22;14472;56.880;16.658;2022-09-06T09:26:23;20.70;1.00
26907;DHT22;14472;56.880;16.658;2022-09-06T09:29:12;20.70;1.00
26907;DHT22;14472;56.880;16.658;2022-09-06T09:31:45;20.70;1.00
26907;DHT22;14472;56.880;16.658;2022-09-06T09:34:13;20.80;1.00
26907;DHT22;14472;56.880;16.658;2022-09-06T09:37:12;20.80;1.00
26907;DHT22;14472;56.880;16.658;2022-09-06T09:39:42;20.70;1.00
26907;DHT22;14472;56.880;16.658;2022-09-06T09:42:08;20.80;1.00
26907;DHT22;14472;56.880;16.658;2022-09-06T09:44:35;20.90;1.00
26907;DHT22;14472;56.880;16.658;2022-09-06T09:47:27;21.00;1.00
26907;DHT22;14472;56.880;16.658;2022-09-06T09:49:56;21.10;1.00
26907;DHT22;14472;56.880;16.658;2022-09-06T09:52:25;21.00;1.00
26907;DHT22;14472;56.880;16.658;2022-09-06T09:54:56;21.10;1.00
26907;DHT22;14472;56.880;16.658;2022-09-06T09:57:22;21.20;1.00
26907;DHT22;14472;56.880;16.658;2022-09-06T09:59:57;21.20;1.00
26907;DHT22;14472;56.880;16.658;2022-09-06T10:07:52;21.40;1.00
26907;DHT22;14472;56.880;16.658;2022-09-06T10:10:38;21.40;1.00
26907;DHT22;14472;56.880;16.658;2022-09-06T10:15:37;21.20;1.00
26907;DHT22;14472;56.880;16.658;2022-09-06T10:18:03;21.10;1.00
26907;DHT22;14472;56.880;16.658;2022-09-06T10:21:12;21.20;1.00
26907;DHT22;14472;56.880;16.658;2022-09-06T10:26:50;21.30;1.00
26907;DHT22;14472;56.880;16.658;2022-09-06T10:35:34;21.50;1.00
26907;DHT22;14472;56.880;16.658;2022-09-06T10:40:38;21.60;1.00
26907;DHT22;14472;56.880;16.658;2022-09-06T10:43:12;21.70;1.00
26907;DHT22;14472;56.880;16.658;2022-09-06T10:45:57;21.80;1.00
26907;DHT22;14472;56.880;16.658;2022-09-06T10:48:30;21.80;1.00
26907;DHT22;14472;56.880;16.658;2022-09-06T10:53:53;21.80;1.00
26907;DHT22;14472;56.880;16.658;2022-09-06T10:56:40;21.90;1.00
26907;DHT22;14472;56.880;16.658;2022-09-06T10:59:21;21.70;1.00
26907;DHT22;14472;56.880;16.658;2022-09-06T11:04:35;21.50;1.00
26907;DHT22;14472;56.880;16.658;2022-09-06T11:07:14;21.40;1.00
26907;DHT22;14472;56.880;16.658;2022-09-06T11:09:52;21.10;1.00
26907;DHT22;14472;56.880;16.658;2022-09-06T11:12:53;21.10;1.00
26907;DHT22;14472;56.880;16.658;2022-09-06T11:15:21;21.10;1.00
26907;DHT22;14472;56.880;16.658;2022-09-06T11:28:51;20.90;1.00
26907;DHT22;14472;56.880;16.658;2022-09-06T11:31:26;21.00;1.00
26907;DHT22;14472;56.880;16.658;2022-09-06T11:34:49;21.00;1.00
26907;DHT22;14472;56.880;16.658;2022-09-06T11:37:25;21.00;1.00
26907;DHT22;14472;56.880;16.658;2022-09-06T11:40:07;21.10;1.00
26907;DHT22;14472;56.880;16.658;2022-09-06T11:47:47;21.10;1.00
26907;DHT22;14472;56.880;16.658;2022-09-06T11:55:23;21.10;1.00
26907;DHT22;14472;56.880;16.658;2022-09-06T11:57:56;21.00;1.00
26907;DHT22;14472;56.880;16.658;2022-09-06T12:00:23;21.00;1.00
26907;DHT22;14472;56.880;16.658;2022-09-06T12:02:50;21.00;1.00
26907;DHT22;14472;56.880;16.658;2022-09-06T12:05:26;20.90;1.00
26907;DHT22;14472;56.880;16.658;2022-09-06T12:08:29;21.00;1.00
26907;DHT22;14472;56.880;16.658;2022-09-06T12:11:01;21.00;1.00
26907;DHT22;14472;56.880;16.658;2022-09-06T12:13:41;20.90;1.00
26907;DHT22;14472;56.880;16.658;2022-09-06T12:16:08;20.80;1.00
26907;DHT22;14472;56.880;16.658;2022-09-06T12:21:38;20.70;1.00
26907;DHT22;14472;56.880;16.658;2022-09-06T12:24:08;20.70;1.00
26907;DHT22;14472;56.880;16.658;2022-09-06T12:26:48;20.90;1.00
26907;DHT22;14472;56.880;16.658;2022-09-06T12:29:26;21.00;1.00
26907;DHT22;14472;56.880;16.658;2022-09-06T12:31:54;21.00;1.00
26907;DHT22;14472;56.880;16.658;2022-09-06T12:34:27;20.80;1.00
26907;DHT22;14472;56.880;16.658;2022-09-06T12:37:01;20.70;1.00
26907;DHT22;14472;56.880;16.658;2022-09-06T12:39:28;20.60;1.00
26907;DHT22;14472;56.880;16.658;2022-09-06T12:44:33;20.40;1.00
26907;DHT22;14472;56.880;16.658;2022-09-06T12:47:08;20.40;1.00
26907;DHT22;14472;56.880;16.658;2022-09-06T12:49:35;20.40;1.00
26907;DHT22;14472;56.880;16.658;2022-09-06T12:52:27;20.40;1.00
26907;DHT22;14472;56.880;16.658;2022-09-06T12:54:52;20.50;1.00
26907;DHT22;14472;56.880;16.658;2022-09-06T12:57:21;20.50;1.00
26907;DHT22;14472;56.880;16.658;2022-09-06T12:59:53;20.50;1.00
26907;DHT22;14472;56.880;16.658;2022-09-06T13:02:32;20.50;1.00
26907;DHT22;14472;56.880;16.658;2022-09-06T13:05:06;20.60;1.00
26907;DHT22;14472;56.880;16.658;2022-09-06T13:07:38;20.70;1.00
26907;DHT22;14472;56.880;16.658;2022-09-06T13:10:05;20.70;1.00
26907;DHT22;14472;56.880;16.658;2022-09-06T13:12:33;20.80;1.00
26907;DHT22;14472;56.880;16.658;2022-09-06T13:15:37;20.90;1.00
26907;DHT22;14472;56.880;16.658;2022-09-06T13:18:30;21.00;1.00
26907;DHT22;14472;56.880;16.658;2022-09-06T13:23:23;21.20;1.00
26907;DHT22;14472;56.880;16.658;2022-09-06T13:25:51;21.30;1.00
26907;DHT22;14472;56.880;16.658;2022-09-06T13:28:31;21.30;1.00
26907;DHT22;14472;56.880;16.658;2022-09-06T13:33:33;21.60;1.00
26907;DHT22;14472;56.880;16.658;2022-09-06T13:41:02;21.80;1.00
26907;DHT22;14472;56.880;16.658;2022-09-06T13:43:29;21.80;1.00
26907;DHT22;14472;56.880;16.658;2022-09-06T13:46:05;21.90;1.00
26907;DHT22;14472;56.880;16.658;2022-09-06T13:48:32;21.90;1.00
26907;DHT22;14472;56.880;16.658;2022-09-06T13:50:58;22.00;1.00
26907;DHT22;14472;56.880;16.658;2022-09-06T13:53:24;22.10;1.00
26907;DHT22;14472;56.880;16.658;2022-09-06T13:55:51;22.10;1.00
26907;DHT22;14472;56.880;16.658;2022-09-06T13:58:17;22.10;1.00
26907;DHT22;14472;56.880;16.658;2022-09-06T14:00:43;22.00;1.00
26907;DHT22;14472;56.880;16.658;2022-09-06T14:03:19;22.00;1.00
26907;DHT22;14472;56.880;16.658;2022-09-06T14:05:47;22.00;1.00
26907;DHT22;14472;56.880;16.658;2022-09-06T14:08:12;22.00;1.00
26907;DHT22;14472;56.880;16.658;2022-09-06T14:10:38;22.00;1.00
26907;DHT22;14472;56.880;16.658;2022-09-06T14:13:05;22.00;1.00
26907;DHT22;14472;56.880;16.658;2022-09-06T14:15:31;22.00;1.00
26907;DHT22;14472;56.880;16.658;2022-09-06T14:17:56;22.00;1.00
26907;DHT22;14472;56.880;16.658;2022-09-06T14:20:22;22.00;1.00
26907;DHT22;14472;56.880;16.658;2022-09-06T14:22:48;22.00;1.00
26907;DHT22;14472;56.880;16.658;2022-09-06T14:25:14;22.00;1.00
26907;DHT22;14472;56.880;16.658;2022-09-06T14:27:39;22.00;1.00
26907;DHT22;14472;56.880;16.658;2022-09-06T14:30:05;22.00;1.00
26907;DHT22;14472;56.880;16.658;2022-09-06T14:32:31;21.90;1.00
26907;DHT22;14472;56.880;16.658;2022-09-06T14:34:57;21.90;1.00
26907;DHT22;14472;56.880;16.658;2022-09-06T14:37:23;21.90;1.00
26907;DHT22;14472;56.880;16.658;2022-09-06T14:39:48;21.80;1.00
26907;DHT22;14472;56.880;16.658;2022-09-06T14:42:14;21.80;1.00
26907;DHT22;14472;56.880;16.658;2022-09-06T14:44:40;21.70;1.00
26907;DHT22;14472;56.880;16.658;2022-09-06T14:47:06;21.70;1.00
26907;DHT22;14472;56.880;16.658;2022-09-06T14:49:33;21.70;1.00
26907;DHT22;14472;56.880;16.658;2022-09-06T14:51:58;21.70;1.00
26907;DHT22;14472;56.880;16.658;2022-09-06T14:54:24;21.70;1.00
26907;DHT22;14472;56.880;16.658;2022-09-06T14:56:52;21.70;1.00
26907;DHT22;14472;56.880;16.658;2022-09-06T14:59:18;21.60;1.00
26907;DHT22;14472;56.880;16.658;2022-09-06T15:01:44;21.60;1.00
26907;DHT22;14472;56.880;16.658;2022-09-06T15:04:10;21.70;1.00
26907;DHT22;14472;56.880;16.658;2022-09-06T15:06:37;21.60;1.00
26907;DHT22;14472;56.880;16.658;2022-09-06T15:09:05;21.50;1.00
26907;DHT22;14472;56.880;16.658;2022-09-06T15:11:41;21.50;1.00
26907;DHT22;14472;56.880;16.658;2022-09-06T15:14:12;21.40;1.00
26907;DHT22;14472;56.880;16.658;2022-09-06T15:16:39;21.40;1.00
26907;DHT22;14472;56.880;16.658;2022-09-06T15:19:05;21.30;1.00
26907;DHT22;14472;56.880;16.658;2022-09-06T15:21:32;21.30;1.00
26907;DHT22;14472;56.880;16.658;2022-09-06T15:23:58;21.30;1.00
26907;DHT22;14472;56.880;16.658;2022-09-06T15:26:24;21.30;1.00
26907;DHT22;14472;56.880;16.658;2022-09-06T15:28:51;21.30;1.00
26907;DHT22;14472;56.880;16.658;2022-09-06T15:31:17;21.30;1.00
26907;DHT22;14472;56.880;16.658;2022-09-06T15:33:44;21.20;1.00
26907;DHT22;14472;56.880;16.658;2022-09-06T15:36:10;21.10;1.00
26907;DHT22;14472;56.880;16.658;2022-09-06T15:38:47;21.10;1.00
26907;DHT22;14472;56.880;16.658;2022-09-06T15:43:46;21.00;1.00
26907;DHT22;14472;56.880;16.658;2022-09-06T15:46:17;20.90;1.00
26907;DHT22;14472;56.880;16.658;2022-09-06T15:48:51;20.90;1.00
26907;DHT22;14472;56.880;16.658;2022-09-06T15:51:19;20.90;1.00
26907;DHT22;14472;56.880;16.658;2022-09-06T15:53:45;20.90;1.00
26907;DHT22;14472;56.880;16.658;2022-09-06T15:56:15;20.90;1.00
26907;DHT22;14472;56.880;16.658;2022-09-06T15:58:42;20.90;1.00
26907;DHT22;14472;56.880;16.658;2022-09-06T16:01:15;20.80;1.00
26907;DHT22;14472;56.880;16.658;2022-09-06T16:03:52;20.80;1.00
26907;DHT22;14472;56.880;16.658;2022-09-06T16:06:24;20.80;1.00
26907;DHT22;14472;56.880;16.658;2022-09-06T16:09:11;20.70;1.00
26907;DHT22;14472;56.880;16.658;2022-09-06T16:11:42;20.70;1.00
26907;DHT22;14472;56.880;16.658;2022-09-06T16:14:13;20.70;1.00
26907;DHT22;14472;56.880;16.658;2022-09-06T16:16:41;20.60;1.00
26907;DHT22;14472;56.880;16.658;2022-09-06T16:19:08;20.50;1.00
26907;DHT22;14472;56.880;16.658;2022-09-06T16:21:36;20.50;1.00
26907;DHT22;14472;56.880;16.658;2022-09-06T16:24:05;20.50;1.00
26907;DHT22;14472;56.880;16.658;2022-09-06T16:26:37;20.40;1.00
26907;DHT22;14472;56.880;16.658;2022-09-06T16:29:04;20.30;1.00
26907;DHT22;14472;56.880;16.658;2022-09-06T16:31:30;20.20;1.00
26907;DHT22;14472;56.880;16.658;2022-09-06T16:33:56;20.10;1.00
26907;DHT22;14472;56.880;16.658;2022-09-06T16:36:23;20.10;1.00
26907;DHT22;14472;56.880;16.658;2022-09-06T16:38:49;20.00;1.00
26907;DHT22;14472;56.880;16.658;2022-09-06T16:41:21;20.00;1.00
26907;DHT22;14472;56.880;16.658;2022-09-06T16:43:50;20.00;1.00
26907;DHT22;14472;56.880;16.658;2022-09-06T16:46:20;19.90;1.00
26907;DHT22;14472;56.880;16.658;2022-09-06T16:48:54;19.90;1.00
26907;DHT22;14472;56.880;16.658;2022-09-06T16:51:22;19.80;1.00
26907;DHT22;14472;56.880;16.658;2022-09-06T16:53:49;19.70;1.00
26907;DHT22;14472;56.880;16.658;2022-09-06T16:56:18;19.70;1.00
26907;DHT22;14472;56.880;16.658;2022-09-06T16:58:49;19.60;1.00
26907;DHT22;14472;56.880;16.658;2022-09-06T17:01:15;19.50;1.00
26907;DHT22;14472;56.880;16.658;2022-09-06T17:03:41;19.40;1.00
26907;DHT22;14472;56.880;16.658;2022-09-06T17:06:07;19.40;1.00
26907;DHT22;14472;56.880;16.658;2022-09-06T17:08:34;19.30;1.00
26907;DHT22;14472;56.880;16.658;2022-09-06T17:11:07;19.20;1.00
26907;DHT22;14472;56.880;16.658;2022-09-06T17:13:34;19.10;1.00
26907;DHT22;14472;56.880;16.658;2022-09-06T17:16:00;19.10;1.00
26907;DHT22;14472;56.880;16.658;2022-09-06T17:18:44;19.00;1.00
26907;DHT22;14472;56.880;16.658;2022-09-06T17:21:10;18.90;1.00
26907;DHT22;14472;56.880;16.658;2022-09-06T17:23:37;18.90;1.00
26907;DHT22;14472;56.880;16.658;2022-09-06T17:26:04;18.80;1.00
26907;DHT22;14472;56.880;16.658;2022-09-06T17:28:34;18.70;1.00
26907;DHT22;14472;56.880;16.658;2022-09-06T17:31:05;18.70;1.00
26907;DHT22;14472;56.880;16.658;2022-09-06T17:33:33;18.60;1.00